Time;durP1;ratioP1;P1;durP2;ratioP2;P2;SDS_P1;SDS_P2;PMS_P1;PMS_P2;Temp;Humidity;BMP_temperature;BMP_pressure;BME280_temperature;BME280_humidity;BME280_pressure;Samples;Min_cycle;Max_cycle;Signal;HPM_P1;HPM_P2
2021/12/03 00:00:52;;;;;;;8.02;2.95;;;-1.10;99.90;;;;;;5092569;23;20219;-75
2021/12/03 00:02:54;;;;;;;8.02;3.42;;;-1.10;99.90;;;;;;5092873;23;20255;-75
2021/12/03 00:04:55;;;;;;;8.00;3.47;;;-1.10;99.90;;;;;;5092424;23;20218;-74
2021/12/03 00:06:58;;;;;;;9.48;4.03;;;-1.10;99.90;;;;;;5092850;23;20184;-76
2021/12/03 00:09:01;;;;;;;10.15;3.53;;;-1.10;99.90;;;;;;5092397;23;20212;-75
2021/12/03 00:11:04;;;;;;;11.27;3.75;;;-1.10;99.90;;;;;;5092357;23;20243;-75
2021/12/03 00:13:07;;;;;;;12.13;3.90;;;-1.10;99.90;;;;;;5092592;23;20191;-75
2021/12/03 00:15:12;;;;;;;9.90;4.22;;;-1.20;99.90;;;;;;5092612;23;20192;-75
2021/12/03 00:17:13;;;;;;;7.53;3.92;;;-1.20;99.90;;;;;;5092670;23;20191;-75
2021/12/03 00:19:15;;;;;;;10.05;3.80;;;-1.20;99.90;;;;;;5092471;23;20212;-76
2021/12/03 00:21:17;;;;;;;9.07;3.50;;;-1.20;99.90;;;;;;5092205;23;20195;-75
2021/12/03 00:23:21;;;;;;;10.93;3.70;;;-1.20;99.90;;;;;;5092543;23;20184;-75
2021/12/03 00:25:25;;;;;;;6.72;3.03;;;-1.20;99.90;;;;;;5092583;23;20184;-75
2021/12/03 00:27:26;;;;;;;8.85;3.63;;;-1.20;99.90;;;;;;5092836;23;20188;-74
2021/12/03 00:29:28;;;;;;;10.05;3.65;;;-1.20;99.90;;;;;;5092915;23;20505;-76
2021/12/03 00:31:30;;;;;;;7.63;3.22;;;-1.20;99.90;;;;;;5092487;23;20195;-75
2021/12/03 00:33:32;;;;;;;10.65;3.97;;;-1.20;99.90;;;;;;5092739;23;20258;-75
2021/12/03 00:35:35;;;;;;;8.10;3.38;;;-1.20;99.90;;;;;;5092666;23;20188;-75
2021/12/03 00:37:38;;;;;;;10.60;3.70;;;-1.20;99.90;;;;;;5092049;23;20663;-75
2021/12/03 00:39:39;;;;;;;8.40;3.97;;;-1.30;99.90;;;;;;5092296;23;20258;-75
2021/12/03 00:41:46;;;;;;;8.35;3.72;;;-1.20;99.90;;;;;;5091791;23;20239;-75
2021/12/03 00:43:51;;;;;;;11.40;4.47;;;-1.20;99.90;;;;;;5093075;23;20179;-75
2021/12/03 00:45:54;;;;;;;9.80;4.03;;;-1.30;99.90;;;;;;5090891;23;20230;-75
2021/12/03 00:47:56;;;;;;;11.10;4.30;;;-1.20;99.90;;;;;;5093077;23;20251;-75
2021/12/03 00:49:58;;;;;;;9.85;4.03;;;-1.30;99.90;;;;;;5091383;23;20275;-75
2021/12/03 00:51:59;;;;;;;9.43;3.85;;;-1.30;99.90;;;;;;5092854;23;20632;-74
2021/12/03 00:54:01;;;;;;;13.23;4.38;;;-1.30;99.90;;;;;;5091804;23;20192;-75
2021/12/03 00:56:03;;;;;;;9.88;3.97;;;-1.30;99.90;;;;;;5092329;23;20187;-75
2021/12/03 00:58:06;;;;;;;10.10;4.80;;;-1.30;99.90;;;;;;5092197;23;20187;-75
2021/12/03 01:00:13;;;;;;;13.60;4.97;;;-1.30;99.90;;;;;;5091960;23;20199;-75
2021/12/03 01:02:16;;;;;;;10.65;4.60;;;-1.30;99.90;;;;;;5092886;23;20172;-75
2021/12/03 01:04:18;;;;;;;8.82;4.03;;;-1.40;99.90;;;;;;5092627;23;20215;-74
2021/12/03 01:06:19;;;;;;;9.85;4.60;;;-1.40;99.90;;;;;;5092116;23;20187;-75
2021/12/03 01:08:21;;;;;;;13.20;5.10;;;-1.40;99.90;;;;;;5092291;23;20666;-74
2021/12/03 01:10:24;;;;;;;13.20;4.93;;;-1.50;99.90;;;;;;5092252;23;20547;-76
2021/12/03 01:12:26;;;;;;;12.65;4.68;;;-1.40;99.90;;;;;;5091998;23;20195;-74
2021/12/03 01:14:29;;;;;;;11.40;4.72;;;-1.40;99.90;;;;;;5092108;23;20187;-75
2021/12/03 01:16:32;;;;;;;11.55;4.72;;;-1.40;99.90;;;;;;5092690;23;20845;-74
2021/12/03 01:18:34;;;;;;;9.13;4.35;;;-1.40;99.90;;;;;;5091635;23;20255;-75
2021/12/03 01:20:37;;;;;;;12.82;5.13;;;-1.40;99.90;;;;;;5091681;23;20571;-75
2021/12/03 01:22:40;;;;;;;10.55;4.60;;;-1.40;99.90;;;;;;5091933;23;20246;-75
2021/12/03 01:24:41;;;;;;;12.70;4.70;;;-1.50;99.90;;;;;;5092182;23;20537;-76
2021/12/03 01:26:45;;;;;;;10.15;4.20;;;-1.40;99.90;;;;;;5092260;23;20187;-75
2021/12/03 01:28:47;;;;;;;8.13;4.13;;;-1.50;99.90;;;;;;5091131;23;20671;-75
2021/12/03 01:30:50;;;;;;;9.43;4.47;;;-1.50;99.90;;;;;;5091488;23;20586;-75
2021/12/03 01:32:52;;;;;;;9.43;5.00;;;-1.50;99.90;;;;;;5090908;23;20188;-76
2021/12/03 01:34:54;;;;;;;11.18;4.15;;;-1.50;99.90;;;;;;5091866;23;20529;-75
2021/12/03 01:36:56;;;;;;;9.23;4.03;;;-1.50;99.90;;;;;;5092407;23;20187;-75
2021/12/03 01:38:57;;;;;;;11.23;4.78;;;-1.50;99.90;;;;;;5090984;23;20214;-76
2021/12/03 01:40:59;;;;;;;7.03;3.65;;;-1.60;99.90;;;;;;5090688;23;20195;-75
2021/12/03 01:43:02;;;;;;;8.25;3.80;;;-1.60;99.90;;;;;;5091826;23;20188;-75
2021/12/03 01:45:05;;;;;;;8.00;3.85;;;-1.60;99.90;;;;;;5092216;23;20489;-75
2021/12/03 01:47:08;;;;;;;9.63;4.00;;;-1.60;99.90;;;;;;5090778;23;20191;-75
2021/12/03 01:49:14;;;;;;;7.07;3.90;;;-1.60;99.90;;;;;;5092391;23;20204;-75
2021/12/03 01:51:15;;;;;;;12.23;4.50;;;-1.60;99.90;;;;;;5091575;23;20203;-75
2021/12/03 01:53:20;;;;;;;11.02;4.72;;;-1.60;99.90;;;;;;5091063;23;20188;-75
2021/12/03 01:55:22;;;;;;;12.50;3.97;;;-1.60;99.90;;;;;;5091762;23;20243;-75
2021/12/03 01:57:24;;;;;;;13.50;4.20;;;-1.70;99.90;;;;;;5090986;23;20325;-75
2021/12/03 01:59:26;;;;;;;10.35;4.30;;;-1.70;99.90;;;;;;5090990;23;20211;-75
2021/12/03 02:01:29;;;;;;;11.13;4.82;;;-1.70;99.90;;;;;;5090692;23;20224;-75
2021/12/03 02:03:35;;;;;;;10.95;4.55;;;-1.70;99.90;;;;;;5090027;23;20192;-75
2021/12/03 02:05:38;;;;;;;10.48;4.60;;;-1.70;99.90;;;;;;5091343;23;20223;-75
2021/12/03 02:07:39;;;;;;;12.63;4.50;;;-1.70;99.90;;;;;;5091266;23;20518;-74
2021/12/03 02:09:42;;;;;;;8.88;4.22;;;-1.70;99.90;;;;;;5090737;23;20602;-74
2021/12/03 02:11:44;;;;;;;8.93;4.40;;;-1.70;99.90;;;;;;5090350;23;20282;-75
2021/12/03 02:13:47;;;;;;;8.82;4.30;;;-1.70;99.90;;;;;;5091924;23;20526;-75
2021/12/03 02:15:49;;;;;;;8.10;3.95;;;-1.70;99.90;;;;;;5091193;23;20566;-74
2021/12/03 02:17:51;;;;;;;10.07;4.25;;;-1.70;99.90;;;;;;5090910;23;20188;-75
2021/12/03 02:19:54;;;;;;;10.80;4.45;;;-1.70;99.90;;;;;;5091330;23;20596;-75
2021/12/03 02:21:58;;;;;;;8.48;4.13;;;-1.70;99.90;;;;;;5091424;23;20194;-75
2021/12/03 02:23:59;;;;;;;12.02;4.70;;;-1.70;99.90;;;;;;5092144;23;20191;-75
2021/12/03 02:26:01;;;;;;;8.10;3.97;;;-1.70;99.90;;;;;;5090493;23;20254;-75
2021/12/03 02:28:03;;;;;;;6.85;3.38;;;-1.70;99.90;;;;;;5091742;23;20188;-74
2021/12/03 02:30:07;;;;;;;10.20;4.43;;;-1.80;99.90;;;;;;5091515;23;20571;-74
2021/12/03 02:32:09;;;;;;;9.65;3.60;;;-1.80;99.90;;;;;;5092112;23;20572;-75
2021/12/03 02:34:11;;;;;;;7.63;3.67;;;-1.80;99.90;;;;;;5092087;23;20191;-75
2021/12/03 02:36:13;;;;;;;10.80;4.20;;;-1.80;99.90;;;;;;5091247;23;20188;-75
2021/12/03 02:38:20;;;;;;;8.68;4.30;;;-1.80;99.90;;;;;;5091347;23;20188;-75
2021/12/03 02:40:24;;;;;;;10.60;3.78;;;-1.80;99.90;;;;;;5090921;23;20243;-75
2021/12/03 02:42:25;;;;;;;10.10;4.50;;;-1.80;99.90;;;;;;5091165;23;20219;-75
2021/12/03 02:44:27;;;;;;;13.98;4.07;;;-1.80;99.90;;;;;;5091005;23;20183;-74
2021/12/03 02:46:29;;;;;;;9.65;4.13;;;-1.80;99.90;;;;;;5091277;23;20187;-74
2021/12/03 02:48:34;;;;;;;7.60;3.75;;;-1.80;99.90;;;;;;5090812;23;20212;-75
2021/12/03 02:50:37;;;;;;;9.50;4.20;;;-1.80;99.90;;;;;;5090513;23;20168;-74
2021/12/03 02:52:39;;;;;;;9.35;3.90;;;-1.80;99.90;;;;;;5093124;23;20552;-75
2021/12/03 02:54:42;;;;;;;9.70;3.88;;;-1.80;99.90;;;;;;5092077;23;20665;-74
2021/12/03 02:56:44;;;;;;;8.85;3.95;;;-1.80;99.90;;;;;;5093766;23;20632;-74
2021/12/03 02:58:46;;;;;;;8.93;3.67;;;-1.90;99.90;;;;;;5092156;23;20254;-75
2021/12/03 03:00:49;;;;;;;9.07;4.00;;;-1.90;99.90;;;;;;5090756;23;20203;-74
2021/12/03 03:02:52;;;;;;;7.43;3.67;;;-1.90;99.90;;;;;;5091719;23;20168;-74
2021/12/03 03:04:54;;;;;;;10.77;3.50;;;-1.90;99.90;;;;;;5092455;23;20227;-74
2021/12/03 03:06:55;;;;;;;6.53;3.15;;;-1.90;99.90;;;;;;5093689;23;20188;-74
2021/12/03 03:08:57;;;;;;;7.82;3.58;;;-1.90;99.90;;;;;;5091937;23;20218;-74
2021/12/03 03:11:03;;;;;;;9.20;3.88;;;-1.90;99.90;;;;;;5092595;23;20187;-75
2021/12/03 03:13:04;;;;;;;9.68;3.33;;;-1.90;99.90;;;;;;5092909;23;20168;-74
2021/12/03 03:15:08;;;;;;;7.80;3.70;;;-1.90;99.90;;;;;;5092423;23;20187;-75
2021/12/03 03:17:10;;;;;;;8.65;3.30;;;-1.80;99.90;;;;;;5092709;23;20196;-75
2021/12/03 03:19:13;;;;;;;8.00;3.72;;;-1.80;99.90;;;;;;5091908;23;20214;-75
2021/12/03 03:21:15;;;;;;;11.70;3.83;;;-1.80;99.90;;;;;;5092593;23;20195;-74
2021/12/03 03:23:19;;;;;;;10.13;3.30;;;-1.80;99.90;;;;;;5092298;23;20423;-74
2021/12/03 03:25:21;;;;;;;13.00;3.90;;;-1.80;99.90;;;;;;5092680;23;20191;-74
2021/12/03 03:27:24;;;;;;;6.80;3.33;;;-1.80;99.90;;;;;;5093017;23;20191;-74
2021/12/03 03:29:25;;;;;;;9.07;3.70;;;-1.70;99.90;;;;;;5093207;23;20204;-74
2021/12/03 03:31:27;;;;;;;7.28;3.80;;;-1.70;99.90;;;;;;5092829;23;20238;-75
2021/12/03 03:33:29;;;;;;;10.30;3.22;;;-1.70;99.90;;;;;;5093270;23;20515;-75
2021/12/03 03:35:31;;;;;;;8.63;3.45;;;-1.70;99.90;;;;;;5092492;23;20551;-75
2021/12/03 03:37:33;;;;;;;11.50;4.38;;;-1.70;99.90;;;;;;5092123;23;20191;-75
2021/12/03 03:39:35;;;;;;;9.18;3.25;;;-1.70;99.90;;;;;;5092329;23;20262;-75
2021/12/03 03:41:37;;;;;;;9.25;3.20;;;-1.70;99.90;;;;;;5091772;23;20529;-74
2021/12/03 03:43:41;;;;;;;10.15;3.58;;;-1.70;99.90;;;;;;5091980;23;20598;-75
2021/12/03 03:45:43;;;;;;;8.32;3.42;;;-1.70;99.90;;;;;;5091735;23;20196;-74
2021/12/03 03:47:46;;;;;;;8.82;3.25;;;-1.70;99.90;;;;;;5092080;23;20175;-75
2021/12/03 03:49:48;;;;;;;8.15;3.97;;;-1.70;99.90;;;;;;5092254;23;20200;-74
2021/12/03 03:51:50;;;;;;;9.55;3.33;;;-1.70;99.90;;;;;;5092478;23;20223;-74
2021/12/03 03:53:52;;;;;;;11.18;4.88;;;-1.70;99.90;;;;;;5091476;23;20263;-74
2021/12/03 03:55:54;;;;;;;7.93;4.15;;;-1.70;99.90;;;;;;5091745;23;20188;-75
2021/12/03 03:57:58;;;;;;;9.93;3.75;;;-1.70;99.90;;;;;;5092640;23;20635;-74
2021/12/03 04:00:01;;;;;;;10.38;3.88;;;-1.70;99.90;;;;;;5090149;23;20204;-74
2021/12/03 04:02:03;;;;;;;9.13;3.90;;;-1.70;99.90;;;;;;5091772;23;20180;-75
2021/12/03 04:04:05;;;;;;;8.40;4.30;;;-1.70;99.90;;;;;;5092177;23;20191;-75
2021/12/03 04:06:07;;;;;;;10.30;4.03;;;-1.70;99.90;;;;;;5091815;23;20192;-74
2021/12/03 04:08:09;;;;;;;10.40;4.57;;;-1.70;99.90;;;;;;5091762;23;20243;-74
2021/12/03 04:10:11;;;;;;;10.85;3.95;;;-1.70;99.90;;;;;;5097162;23;20216;-84
2021/12/03 04:12:13;;;;;;;10.32;4.22;;;-1.70;99.90;;;;;;5100474;23;20188;-84
2021/12/03 04:14:15;;;;;;;8.75;4.00;;;-1.70;99.90;;;;;;5097312;23;20222;-84
2021/12/03 04:16:19;;;;;;;9.75;3.95;;;-1.70;99.90;;;;;;5100837;23;20192;-84
2021/12/03 04:18:21;;;;;;;10.00;4.25;;;-1.70;99.90;;;;;;5097504;23;20188;-84
2021/12/03 04:20:22;;;;;;;10.73;4.63;;;-1.70;99.90;;;;;;5098556;23;20674;-83
2021/12/03 04:22:25;;;;;;;11.30;4.00;;;-1.70;99.90;;;;;;5097296;23;20467;-84
2021/12/03 04:24:27;;;;;;;11.98;4.35;;;-1.70;99.90;;;;;;5099634;23;20195;-84
2021/12/03 04:26:28;;;;;;;13.00;4.68;;;-1.70;99.90;;;;;;5097426;23;20176;-84
2021/12/03 04:28:30;;;;;;;12.48;4.20;;;-1.70;99.90;;;;;;5099528;23;20187;-84
2021/12/03 04:30:32;;;;;;;8.75;4.13;;;-1.70;99.90;;;;;;5098707;23;20180;-84
2021/12/03 04:32:35;;;;;;;11.68;3.83;;;-1.70;99.90;;;;;;5099423;23;20238;-83
2021/12/03 04:34:37;;;;;;;9.63;4.22;;;-1.70;99.90;;;;;;5098208;23;20187;-84
2021/12/03 04:36:39;;;;;;;7.88;3.63;;;-1.70;99.90;;;;;;5099374;23;21057;-84
2021/12/03 04:38:41;;;;;;;8.45;3.70;;;-1.70;99.90;;;;;;5099032;23;20184;-84
2021/12/03 04:40:45;;;;;;;7.53;3.78;;;-1.70;99.90;;;;;;5097946;23;20577;-83
2021/12/03 04:42:47;;;;;;;11.18;3.90;;;-1.70;99.90;;;;;;5098535;23;20239;-84
2021/12/03 04:44:49;;;;;;;9.40;3.17;;;-1.70;99.90;;;;;;5097366;23;20180;-83
2021/12/03 04:46:51;;;;;;;9.95;4.18;;;-1.80;99.90;;;;;;5096839;23;20176;-84
2021/12/03 04:48:54;;;;;;;8.75;3.47;;;-1.80;99.90;;;;;;5098050;23;20207;-84
2021/12/03 04:50:56;;;;;;;9.88;3.78;;;-1.80;99.90;;;;;;5098782;23;20187;-84
2021/12/03 04:52:58;;;;;;;8.00;3.70;;;-1.80;99.90;;;;;;5096042;23;20650;-84
2021/12/03 04:54:59;;;;;;;9.52;3.33;;;-1.80;99.90;;;;;;5100392;23;20273;-84
2021/12/03 04:57:01;;;;;;;8.20;3.25;;;-1.80;99.90;;;;;;5097914;23;20194;-84
2021/12/03 04:59:03;;;;;;;8.80;3.47;;;-1.80;99.90;;;;;;5098623;23;20243;-84
2021/12/03 05:01:05;;;;;;;7.30;2.95;;;-1.80;99.90;;;;;;5095093;23;20247;-84
2021/12/03 05:03:08;;;;;;;6.68;3.13;;;-1.80;99.90;;;;;;5099010;23;20179;-83
2021/12/03 05:05:11;;;;;;;6.18;2.67;;;-1.80;99.90;;;;;;5097217;23;20188;-84
2021/12/03 05:07:31;;;;;;;7.38;2.47;;;-1.80;99.90;;;;;;5099117;23;20223;-84
2021/12/03 05:09:33;;;;;;;8.77;2.67;;;-1.80;99.90;;;;;;5108367;23;20519;-84
2021/12/03 05:11:34;;;;;;;4.93;2.60;;;-1.80;99.90;;;;;;5121767;23;20194;-84
2021/12/03 05:13:37;;;;;;;7.95;2.92;;;-1.80;99.90;;;;;;5121003;23;20191;-84
2021/12/03 05:15:40;;;;;;;8.50;3.35;;;-1.80;99.90;;;;;;5124802;23;20701;-84
2021/12/03 05:17:42;;;;;;;7.88;2.67;;;-1.80;99.90;;;;;;5121305;23;20191;-83
2021/12/03 05:19:44;;;;;;;6.53;2.85;;;-1.80;99.90;;;;;;5124252;23;20203;-84
2021/12/03 05:21:47;;;;;;;6.85;2.85;;;-1.80;99.90;;;;;;5120527;23;20670;-84
2021/12/03 05:23:49;;;;;;;8.63;3.22;;;-1.80;99.90;;;;;;5123852;23;20180;-83
2021/12/03 05:25:51;;;;;;;7.57;2.75;;;-1.90;99.90;;;;;;5122367;23;20544;-83
2021/12/03 05:27:54;;;;;;;9.48;3.00;;;-1.90;99.90;;;;;;5121912;23;20219;-83
2021/12/03 05:29:55;;;;;;;9.27;3.20;;;-1.90;99.90;;;;;;5121243;23;20261;-84
2021/12/03 05:31:57;;;;;;;5.18;2.50;;;-1.90;99.90;;;;;;5122287;23;20187;-83
2021/12/03 05:33:59;;;;;;;7.60;2.78;;;-1.90;99.90;;;;;;5121741;23;20646;-84
2021/12/03 05:36:01;;;;;;;5.72;2.83;;;-1.90;99.90;;;;;;5121136;23;20226;-83
2021/12/03 05:38:05;;;;;;;5.65;2.80;;;-1.90;99.90;;;;;;5122174;23;20512;-84
2021/12/03 05:40:09;;;;;;;7.15;2.40;;;-1.90;99.90;;;;;;5121027;23;20207;-84
2021/12/03 05:42:11;;;;;;;6.25;3.00;;;-1.90;99.90;;;;;;5121932;23;20191;-83
2021/12/03 05:44:13;;;;;;;4.80;2.63;;;-1.90;99.90;;;;;;5122663;23;20230;-84
2021/12/03 05:46:15;;;;;;;6.20;3.25;;;-1.90;99.90;;;;;;5122334;23;20193;-84
2021/12/03 05:48:17;;;;;;;12.18;3.30;;;-1.90;99.90;;;;;;5121782;23;20176;-83
2021/12/03 05:50:19;;;;;;;8.63;2.92;;;-1.90;99.90;;;;;;5123309;23;20207;-83
2021/12/03 05:52:21;;;;;;;5.68;2.53;;;-1.90;99.90;;;;;;5120865;23;20368;-84
2021/12/03 05:54:26;;;;;;;9.80;3.88;;;-1.90;99.90;;;;;;5121635;23;20190;-84
2021/12/03 05:56:28;;;;;;;7.35;3.15;;;-1.90;99.90;;;;;;5121220;23;20183;-84
2021/12/03 05:58:30;;;;;;;6.05;2.50;;;-1.90;99.90;;;;;;5123566;23;20179;-84
2021/12/03 06:00:34;;;;;;;6.70;2.70;;;-1.90;99.90;;;;;;5121004;23;20199;-84
2021/12/03 06:02:36;;;;;;;6.18;3.53;;;-1.90;99.90;;;;;;5123732;23;20190;-83
2021/12/03 06:04:39;;;;;;;6.68;2.97;;;-1.90;99.90;;;;;;5121661;23;20180;-84
2021/12/03 06:06:41;;;;;;;5.35;2.45;;;-1.90;99.90;;;;;;5123493;23;20183;-84
2021/12/03 06:08:43;;;;;;;7.63;2.53;;;-1.90;99.90;;;;;;5121675;23;20237;-85
2021/12/03 06:10:46;;;;;;;8.52;3.08;;;-1.90;99.90;;;;;;5123408;23;20230;-84
2021/12/03 06:12:48;;;;;;;8.57;3.15;;;-1.90;99.90;;;;;;5121971;23;20207;-84
2021/12/03 06:14:50;;;;;;;6.70;2.60;;;-1.90;99.90;;;;;;5123630;23;20222;-84
2021/12/03 06:16:52;;;;;;;7.40;3.28;;;-1.90;99.90;;;;;;5120722;23;20179;-84
2021/12/03 06:18:53;;;;;;;10.63;2.92;;;-1.90;99.90;;;;;;5124011;23;20211;-84
2021/12/03 06:20:55;;;;;;;7.88;3.70;;;-1.90;99.90;;;;;;5120903;23;20203;-84
2021/12/03 06:22:57;;;;;;;8.27;3.40;;;-1.90;99.90;;;;;;5123446;23;20175;-83
2021/12/03 06:25:00;;;;;;;6.60;2.88;;;-1.90;99.90;;;;;;5122749;23;20704;-84
2021/12/03 06:27:03;;;;;;;7.22;2.95;;;-1.90;99.90;;;;;;5124269;23;20187;-84
2021/12/03 06:29:05;;;;;;;7.75;3.80;;;-1.90;99.90;;;;;;5122178;23;20516;-83
2021/12/03 06:31:07;;;;;;;10.35;3.17;;;-1.90;99.90;;;;;;5122008;23;20234;-85
2021/12/03 06:33:09;;;;;;;5.88;3.05;;;-1.90;99.90;;;;;;5121170;23;20183;-84
2021/12/03 06:35:13;;;;;;;6.82;3.13;;;-1.90;99.90;;;;;;5123071;23;20241;-84
2021/12/03 06:37:15;;;;;;;10.32;3.30;;;-1.90;99.90;;;;;;5124224;23;20571;-84
2021/12/03 06:39:16;;;;;;;10.93;3.70;;;-1.90;99.90;;;;;;5118566;23;20211;-84
2021/12/03 06:41:18;;;;;;;10.77;3.65;;;-1.90;99.90;;;;;;5121595;23;20666;-83
2021/12/03 06:43:21;;;;;;;7.25;3.97;;;-1.90;99.90;;;;;;5124706;23;20191;-82
2021/12/03 06:45:24;;;;;;;7.78;3.50;;;-1.90;99.90;;;;;;5121536;23;20564;-82
2021/12/03 06:47:26;;;;;;;11.30;3.83;;;-1.90;99.90;;;;;;5121669;23;20588;-83
2021/12/03 06:49:29;;;;;;;7.82;3.50;;;-1.90;99.90;;;;;;5123188;23;20207;-83
2021/12/03 06:51:31;;;;;;;7.78;3.55;;;-1.80;99.90;;;;;;5120319;23;20649;-83
2021/12/03 06:53:41;;;;;;;7.78;3.10;;;-1.80;99.90;;;;;;5122178;23;20631;-83
2021/12/03 06:55:46;;;;;;;8.55;3.53;;;-1.80;99.90;;;;;;5121374;23;20548;-83
2021/12/03 06:57:48;;;;;;;8.82;3.63;;;-1.80;99.90;;;;;;5121164;23;20242;-83
2021/12/03 06:59:51;;;;;;;9.25;3.35;;;-1.80;99.90;;;;;;5124106;23;20207;-83
2021/12/03 07:01:54;;;;;;;7.65;3.10;;;-1.80;99.90;;;;;;5124482;23;20203;-83
2021/12/03 07:03:55;;;;;;;8.77;3.40;;;-1.80;99.90;;;;;;5121402;23;20630;-83
2021/12/03 07:05:57;;;;;;;7.32;3.42;;;-1.80;99.90;;;;;;5124204;23;20210;-82
2021/12/03 07:07:59;;;;;;;8.75;3.90;;;-1.80;99.90;;;;;;5122182;23;20493;-82
2021/12/03 07:10:01;;;;;;;9.30;3.22;;;-1.80;99.90;;;;;;5123579;23;20211;-83
2021/12/03 07:12:04;;;;;;;10.30;3.28;;;-1.80;99.90;;;;;;5122725;23;20175;-83
2021/12/03 07:14:07;;;;;;;12.55;3.75;;;-1.80;99.90;;;;;;5123406;23;20190;-84
2021/12/03 07:16:10;;;;;;;13.18;3.97;;;-1.70;99.90;;;;;;5120777;23;20212;-82
2021/12/03 07:18:11;;;;;;;7.28;3.00;;;-1.70;99.90;;;;;;5112761;23;20194;-78
2021/12/03 07:20:13;;;;;;;10.63;4.00;;;-1.70;99.90;;;;;;5114998;23;20266;-82
2021/12/03 07:22:15;;;;;;;8.18;3.10;;;-1.70;99.90;;;;;;5115669;23;20658;-82
2021/12/03 07:24:17;;;;;;;9.55;3.30;;;-1.70;99.90;;;;;;5115226;23;20241;-82
2021/12/03 07:26:20;;;;;;;9.68;3.58;;;-1.70;99.90;;;;;;5117331;23;20183;-83
2021/12/03 07:28:22;;;;;;;6.63;3.13;;;-1.70;99.90;;;;;;5115681;23;20180;-83
2021/12/03 07:30:24;;;;;;;8.45;3.45;;;-1.70;99.90;;;;;;5112684;23;20207;-81
2021/12/03 07:32:30;;;;;;;9.00;3.33;;;-1.70;99.90;;;;;;5112474;23;20561;-83
2021/12/03 07:34:32;;;;;;;7.30;3.13;;;-1.70;99.90;;;;;;5115010;23;20520;-83
2021/12/03 07:36:34;;;;;;;7.45;3.53;;;-1.60;99.90;;;;;;5113843;23;20219;-82
2021/12/03 07:38:37;;;;;;;8.35;3.20;;;-1.60;99.90;;;;;;5115625;23;20238;-82
2021/12/03 07:40:38;;;;;;;5.90;2.60;;;-1.60;99.90;;;;;;5115647;23;20183;-83
2021/12/03 07:42:41;;;;;;;6.40;3.00;;;-1.60;99.90;;;;;;5114603;23;20218;-83
2021/12/03 07:44:43;;;;;;;7.85;2.85;;;-1.60;99.90;;;;;;5116176;23;20191;-82
2021/12/03 07:46:45;;;;;;;6.30;2.72;;;-1.60;99.90;;;;;;5113654;23;20320;-83
2021/12/03 07:48:49;;;;;;;8.48;2.80;;;-1.50;99.90;;;;;;5116092;23;20179;-82
2021/12/03 07:50:53;;;;;;;8.05;2.75;;;-1.50;99.90;;;;;;5114418;23;20659;-83
2021/12/03 07:52:54;;;;;;;9.10;2.65;;;-1.50;99.90;;;;;;5116761;23;20187;-82
2021/12/03 07:54:56;;;;;;;8.88;3.03;;;-1.40;99.90;;;;;;5113452;23;20187;-83
2021/12/03 07:56:58;;;;;;;5.00;2.22;;;-1.40;99.90;;;;;;5116103;23;20183;-83
2021/12/03 07:59:00;;;;;;;6.65;2.65;;;-1.40;99.90;;;;;;5113462;23;20206;-83
2021/12/03 08:01:02;;;;;;;4.63;2.17;;;-1.40;99.90;;;;;;5114859;23;20245;-85
2021/12/03 08:03:04;;;;;;;5.97;2.15;;;-1.30;99.90;;;;;;5114517;23;20403;-83
2021/12/03 08:05:08;;;;;;;3.72;1.95;;;-0.60;99.90;;;;;;5115883;23;20187;-83
2021/12/03 08:07:10;;;;;;;7.30;2.57;;;-1.30;99.90;;;;;;5115888;23;20179;-83
2021/12/03 08:09:12;;;;;;;5.93;2.30;;;-1.20;99.90;;;;;;5115431;23;20548;-83
2021/12/03 08:11:14;;;;;;;4.43;1.70;;;-1.20;99.90;;;;;;5114059;23;20419;-83
2021/12/03 08:13:15;;;;;;;6.07;2.17;;;-1.20;99.90;;;;;;5116753;23;20247;-82
2021/12/03 08:15:18;;;;;;;3.77;1.97;;;-1.10;99.90;;;;;;5116364;23;20198;-83
2021/12/03 08:17:19;;;;;;;4.53;1.60;;;-1.10;99.90;;;;;;5117267;23;20472;-83
2021/12/03 08:19:21;;;;;;;4.18;1.52;;;-1.10;99.90;;;;;;5116532;23;20690;-83
2021/12/03 08:21:24;;;;;;;5.53;2.00;;;-1.10;99.90;;;;;;5113426;23;20273;-83
2021/12/03 08:23:27;;;;;;;4.23;1.73;;;-1.10;99.90;;;;;;5116642;23;20242;-83
2021/12/03 08:25:29;;;;;;;5.50;1.87;;;-1.10;99.90;;;;;;5114504;23;20741;-82
2021/12/03 08:27:31;;;;;;;4.78;1.92;;;-1.00;99.90;;;;;;5115495;23;20419;-83
2021/12/03 08:29:36;;;;;;;3.77;1.47;;;-1.00;99.90;;;;;;5115355;23;20265;-84
2021/12/03 08:31:38;;;;;;;6.60;1.93;;;-1.00;99.90;;;;;;5114572;23;20862;-83
2021/12/03 08:33:40;;;;;;;4.47;1.60;;;-0.90;99.90;;;;;;5114614;23;21064;-84
2021/12/03 08:35:42;;;;;;;5.38;1.85;;;-1.00;99.90;;;;;;5116399;23;20406;-83
2021/12/03 08:37:47;;;;;;;5.13;1.80;;;-1.00;99.90;;;;;;5114208;23;20187;-83
2021/12/03 08:39:49;;;;;;;4.30;1.50;;;-1.00;99.90;;;;;;5116456;23;20855;-84
2021/12/03 08:41:51;;;;;;;3.93;1.93;;;-0.90;99.90;;;;;;5113382;23;20871;-84
2021/12/03 08:43:53;;;;;;;7.00;2.10;;;-0.90;99.90;;;;;;5116968;23;20501;-83
2021/12/03 08:45:55;;;;;;;5.93;1.92;;;-0.90;99.90;;;;;;5111567;23;20429;-81
2021/12/03 08:47:59;;;;;;;2.37;1.30;;;-0.90;99.90;;;;;;5115428;23;20180;-82
2021/12/03 08:50:03;;;;;;;4.33;1.80;;;-0.90;99.90;;;;;;5113229;23;20488;-80
2021/12/03 08:56:45;;;;;;;3.07;1.70;;;-0.80;99.90;;;;;;5115687;23;20386;-82
2021/12/03 08:58:47;;;;;;;5.70;1.88;;;-0.80;99.90;;;;;;5113802;23;20418;-82
2021/12/03 09:00:49;;;;;;;3.70;1.30;;;-0.70;99.90;;;;;;5113845;23;20676;-83
2021/12/03 09:02:50;;;;;;;3.37;1.47;;;-0.70;99.90;;;;;;5114204;23;20857;-82
2021/12/03 09:04:52;;;;;;;2.27;1.40;;;-0.70;99.90;;;;;;5114950;23;20430;-83
2021/12/03 09:06:54;;;;;;;4.53;1.53;;;-0.60;99.90;;;;;;5114290;23;20473;-83
2021/12/03 09:08:56;;;;;;;3.40;1.43;;;-0.60;99.90;;;;;;5115612;23;20450;-83
2021/12/03 09:10:59;;;;;;;3.40;1.70;;;-0.60;99.90;;;;;;5117092;23;20441;-82
2021/12/03 09:13:00;;;;;;;4.23;1.80;;;-0.50;99.90;;;;;;5116104;23;20407;-80
2021/12/03 09:15:05;;;;;;;3.93;1.40;;;-0.50;99.90;;;;;;5114631;23;20409;-82
2021/12/03 09:17:21;;;;;;;4.17;1.60;;;-0.50;99.90;;;;;;5116254;23;20427;-81
2021/12/03 09:19:26;;;;;;;5.00;1.67;;;-0.50;99.90;;;;;;5115151;23;20430;-83
2021/12/03 09:21:30;;;;;;;3.77;1.80;;;-0.40;99.90;;;;;;5114188;23;20498;-82
2021/12/03 09:23:38;;;;;;;2.87;1.30;;;-0.40;99.90;;;;;;5113710;23;20430;-82
2021/12/03 09:25:45;;;;;;;4.47;1.67;;;-0.40;99.90;;;;;;5113505;23;20410;-81
2021/12/03 09:27:49;;;;;;;4.97;1.60;;;-0.40;99.90;;;;;;5114411;23;20473;-80
2021/12/03 09:29:54;;;;;;;2.97;1.30;;;-0.30;99.90;;;;;;5114950;23;20501;-81
2021/12/03 09:31:57;;;;;;;3.40;1.57;;;-0.30;99.90;;;;;;5115446;23;20418;-79
2021/12/03 09:33:59;;;;;;;3.20;1.80;;;-0.30;99.90;;;;;;5114367;23;20411;-81
2021/12/03 09:36:02;;;;;;;3.60;1.70;;;-0.20;99.90;;;;;;5114867;23;20965;-83
2021/12/03 09:38:04;;;;;;;3.30;1.50;;;-0.20;99.90;;;;;;5114707;23;20530;-82
2021/12/03 09:40:08;;;;;;;3.83;1.70;;;-0.20;99.90;;;;;;5114323;23;20687;-79
2021/12/03 09:42:10;;;;;;;2.77;1.33;;;-0.10;99.90;;;;;;5114086;23;20459;-81
2021/12/03 09:44:14;;;;;;;4.63;1.97;;;-0.10;99.90;;;;;;5113434;23;20419;-81
2021/12/03 09:46:20;;;;;;;4.17;1.70;;;-0.10;99.90;;;;;;5112435;23;20411;-80
2021/12/03 09:48:33;;;;;;;2.13;1.40;;;0.00;99.90;;;;;;5115105;23;20477;-81
2021/12/03 09:50:35;;;;;;;8.83;1.73;;;0.00;99.90;;;;;;5114401;23;20426;-81
2021/12/03 09:52:43;;;;;;;2.93;1.67;;;0.00;99.90;;;;;;5115631;23;20476;-80
2021/12/03 09:54:48;;;;;;;7.57;1.87;;;0.10;99.90;;;;;;5113851;23;20881;-81
2021/12/03 09:56:51;;;;;;;7.83;2.60;;;0.10;99.90;;;;;;5115773;23;20997;-81
2021/12/03 10:01:13;;;;;;;5.43;1.80;;;0.20;99.90;;;;;;5089389;23;20469;-81
2021/12/03 10:03:35;;;;;;;5.17;2.10;;;0.20;99.90;;;;;;5114457;23;20555;-80
2021/12/03 10:12:58;;;;;;;5.20;2.40;;;0.30;99.90;;;;;;5084715;23;20895;-73
2021/12/03 10:15:06;;;;;;;5.43;2.70;;;0.30;99.90;;;;;;5085444;23;20417;-73
2021/12/03 10:19:49;;;;;;;10.23;2.83;;;0.40;99.90;;;;;;5085181;23;20430;-75
2021/12/03 10:22:16;;;;;;;5.57;2.70;;;0.40;99.90;;;;;;5085492;23;20478;-73
2021/12/03 10:24:39;;;;;;;6.20;2.70;;;0.50;99.90;;;;;;5085830;23;20470;-74
2021/12/03 10:33:49;;;;;;;6.43;3.20;;;0.50;99.90;;;;;;5086256;23;20391;-73
2021/12/03 10:38:24;;;;;;;6.47;3.00;;;0.60;99.90;;;;;;5085037;23;20773;-73
2021/12/03 10:43:10;;;;;;;6.37;2.80;;;0.70;99.90;;;;;;5084960;23;20471;-73
2021/12/03 10:45:23;;;;;;;6.10;2.50;;;0.80;99.90;;;;;;5084774;23;20419;-75
2021/12/03 10:47:38;;;;;;;4.60;2.20;;;0.80;99.90;;;;;;5085085;23;20951;-74
2021/12/03 10:49:52;;;;;;;6.67;2.67;;;0.80;99.90;;;;;;5084523;23;20535;-74
2021/12/03 10:52:09;;;;;;;4.87;2.47;;;0.90;99.90;;;;;;5084600;23;21041;-73
2021/12/03 10:54:24;;;;;;;3.77;2.10;;;0.90;99.90;;;;;;5084664;23;20783;-73
2021/12/03 10:56:45;;;;;;;4.97;2.50;;;1.00;99.90;;;;;;5085547;23;20409;-74
2021/12/03 11:01:41;;;;;;;5.90;2.80;;;1.00;99.90;;;;;;5083818;23;20411;-73
2021/12/03 11:06:33;;;;;;;6.03;2.63;;;1.10;99.90;;;;;;5086000;23;20875;-74
2021/12/03 11:13:45;;;;;;;5.13;2.23;;;1.30;99.90;;;;;;5078613;23;20413;-74
2021/12/03 11:30:13;;;;;;;7.13;2.40;;;1.80;99.90;;;;;;5086149;23;20433;-77
2021/12/03 11:39:39;;;;;;;5.73;2.50;;;2.10;99.90;;;;;;5085112;23;20825;-76
2021/12/03 13:14:48;;;;;;;5.30;2.20;;;4.20;99.90;;;;;;4230452;27;21166;-76